createdAt,value
2018-03-02T21:45:35.333Z,100.95
2018-03-02T21:48:01.872Z,94.13
2018-03-02T21:50:29.350Z,117.90
2018-03-02T21:52:56.568Z,104.30
2018-03-02T21:55:23.047Z,101.43
2018-03-02T21:57:49.512Z,106.22
2018-03-02T22:00:16.012Z,118.18
2018-03-02T22:02:42.482Z,112.10
2018-03-02T22:05:08.989Z,95.78
2018-03-02T22:07:35.462Z,103.53
2018-03-02T22:10:01.937Z,120.15
2018-03-02T22:12:28.510Z,117.80
2018-03-02T22:14:54.979Z,111.20
2018-03-02T22:17:21.380Z,103.28
2018-03-02T22:19:47.990Z,87.35
2018-03-02T22:22:14.455Z,109.37
2018-03-02T22:24:40.905Z,87.35
2018-03-02T22:27:07.446Z,96.82
2018-03-02T22:29:34.589Z,119.00
2018-03-02T22:32:01.976Z,120.72
2018-03-02T22:34:28.483Z,115.93
2018-03-02T22:36:54.940Z,136.62
2018-03-02T22:39:21.417Z,111.70
2018-03-02T22:41:47.909Z,129.87
2018-03-02T22:44:14.458Z,136.07
2018-03-02T22:46:40.907Z,125.97
2018-03-02T22:49:07.369Z,134.37
2018-03-02T22:51:33.793Z,107.25
2018-03-02T22:54:00.251Z,122.45
2018-03-02T22:56:26.690Z,127.53
2018-03-02T22:58:53.564Z,106.03
2018-03-02T23:01:20.691Z,130.00
2018-03-02T23:03:47.162Z,140.00
2018-03-02T23:06:14.339Z,145.20
2018-03-02T23:08:40.740Z,121.43
2018-03-02T23:11:07.232Z,128.70
2018-03-02T23:13:33.595Z,144.55
2018-03-02T23:16:00.037Z,132.00
2018-03-02T23:18:26.470Z,134.50
2018-03-02T23:20:52.958Z,141.88
2018-03-02T23:23:19.357Z,147.23
2018-03-02T23:25:45.742Z,145.82
2018-03-02T23:28:12.186Z,139.52
2018-03-02T23:30:39.337Z,153.68
2018-03-02T23:33:06.502Z,169.25
2018-03-02T23:35:32.920Z,166.30
2018-03-02T23:37:59.353Z,146.50
2018-03-02T23:40:26.508Z,153.98
2018-03-02T23:42:52.971Z,155.98
2018-03-02T23:45:19.402Z,132.43
2018-03-02T23:47:45.787Z,160.50
2018-03-02T23:50:12.937Z,157.35
2018-03-02T23:52:39.341Z,143.45
2018-03-02T23:55:05.785Z,156.95
2018-03-02T23:57:32.176Z,152.23
2018-03-02T23:59:58.561Z,167.37
